createdAt,value
2023-05-17T00:02:08.140Z,100369.75
2023-05-17T00:05:15.602Z,100369.47
2023-05-17T00:08:22.563Z,100370.53
2023-05-17T00:11:28.790Z,100376.13
2023-05-17T00:14:36.323Z,100384.16
2023-05-17T00:17:43.151Z,100371.59
2023-05-17T00:20:48.578Z,100379.63
2023-05-17T00:23:54.114Z,100360.63
2023-05-17T00:26:59.704Z,100354.41
2023-05-17T00:30:06.747Z,100357.91
2023-05-17T00:33:15.596Z,100358.97
2023-05-17T00:36:21.582Z,100369.22
2023-05-17T00:39:27.119Z,100368.16
2023-05-17T00:42:32.655Z,100358.25
2023-05-17T00:45:38.194Z,100355.31
2023-05-17T00:48:44.322Z,100359.03
2023-05-17T00:51:49.518Z,100351.56
2023-05-17T00:54:54.859Z,100349.13
2023-05-17T00:58:00.646Z,100342.16
2023-05-17T01:01:07.688Z,100344.88
2023-05-17T01:04:13.754Z,100345.63
2023-05-17T01:07:19.198Z,100357.66
2023-05-17T01:11:06.876Z,100353.13
2023-05-17T01:14:30.931Z,100351.53
2023-05-17T01:17:51.629Z,100367.84
2023-05-17T01:21:00.689Z,100362.78
2023-05-17T01:24:24.694Z,100344.03
2023-05-17T01:27:32.287Z,100375.34
2023-05-17T01:30:38.702Z,100364.63
2023-05-17T01:33:44.168Z,100352.59
2023-05-17T01:36:49.700Z,100359.84
2023-05-17T01:39:55.032Z,100366.53
2023-05-17T01:43:29.381Z,100361.72
2023-05-17T01:46:44.512Z,100377.25
2023-05-17T01:49:54.389Z,100373.53
2023-05-17T01:53:11.201Z,100379.47
2023-05-17T01:56:29.279Z,100389.06
2023-05-17T01:59:38.560Z,100390.97
2023-05-17T02:02:45.720Z,100395.00
2023-05-17T02:05:51.937Z,100389.66
2023-05-17T02:08:59.219Z,100394.72
2023-05-17T02:12:04.703Z,100403.03
2023-05-17T02:15:12.275Z,100397.72
2023-05-17T02:18:18.594Z,100401.69
2023-05-17T02:21:25.171Z,100393.13
2023-05-17T02:24:30.561Z,100405.41
2023-05-17T02:27:36.379Z,100395.00
2023-05-17T02:30:41.935Z,100400.34
2023-05-17T02:33:47.573Z,100400.94
2023-05-17T02:36:55.097Z,100407.03
2023-05-17T02:40:00.466Z,100423.41
2023-05-17T02:43:06.114Z,100417.75
2023-05-17T02:46:14.757Z,100424.47
2023-05-17T02:49:20.344Z,100427.94
2023-05-17T02:52:25.976Z,100436.03
2023-05-17T02:55:31.534Z,100437.38
2023-05-17T02:58:37.250Z,100441.63
2023-05-17T03:01:42.430Z,100446.47
2023-05-17T03:04:48.751Z,100453.97
2023-05-17T03:07:54.153Z,100457.22
2023-05-17T03:11:00.978Z,100459.38
2023-05-17T03:14:06.480Z,100464.50
2023-05-17T03:17:12.248Z,100465.81
2023-05-17T03:20:19.285Z,100481.84
2023-05-17T03:23:26.406Z,100493.69
2023-05-17T03:26:37.228Z,100500.59
2023-05-17T03:29:44.287Z,100507.06
2023-05-17T03:32:53.776Z,100515.97
2023-05-17T03:35:59.527Z,100526.81
2023-05-17T03:39:05.742Z,100523.66
2023-05-17T03:42:11.442Z,100517.81
2023-05-17T03:45:16.975Z,100524.44
2023-05-17T03:48:22.525Z,100537.00
2023-05-17T03:51:28.238Z,100534.94
2023-05-17T03:54:33.712Z,100537.91
2023-05-17T03:57:39.014Z,100545.66
2023-05-17T04:00:45.242Z,100545.66
2023-05-17T04:03:55.314Z,100544.63
2023-05-17T04:07:01.642Z,100555.31
2023-05-17T04:10:08.182Z,100559.66
2023-05-17T04:13:13.675Z,100563.94
2023-05-17T04:16:19.301Z,100558.59
2023-05-17T04:19:25.082Z,100570.31
2023-05-17T04:22:31.256Z,100580.31
2023-05-17T04:25:37.084Z,100574.63
2023-05-17T04:28:42.531Z,100574.13
2023-05-17T04:31:49.891Z,100575.44
2023-05-17T04:34:56.552Z,100582.41
2023-05-17T04:38:02.661Z,100573.34
2023-05-17T04:41:09.749Z,100584.59
2023-05-17T04:44:18.183Z,100587.06
2023-05-17T04:47:24.652Z,100591.28
2023-05-17T04:50:30.921Z,100585.41
2023-05-17T04:53:36.399Z,100592.00
2023-05-17T04:56:47.195Z,100599.22
2023-05-17T05:00:12.605Z,100600.59
2023-05-17T05:03:20.432Z,100616.41
2023-05-17T05:06:28.126Z,100612.00
2023-05-17T05:09:34.121Z,100618.72
2023-05-17T05:12:40.010Z,100613.13
2023-05-17T05:15:45.841Z,100624.06
2023-05-17T05:18:51.736Z,100622.72
2023-05-17T05:21:57.916Z,100621.34
2023-05-17T05:25:04.056Z,100628.13
2023-05-17T05:28:09.503Z,100646.09
2023-05-17T05:31:17.685Z,100646.09
2023-05-17T05:34:29.763Z,100641.06
2023-05-17T05:37:35.336Z,100638.06
2023-05-17T05:40:40.833Z,100645.31
2023-05-17T05:43:46.587Z,100645.53
2023-05-17T05:46:53.326Z,100645.78
2023-05-17T05:49:58.803Z,100647.94
2023-05-17T05:53:17.377Z,100656.78
2023-05-17T05:56:29.588Z,100658.88
2023-05-17T05:59:35.623Z,100654.59
2023-05-17T06:02:41.474Z,100659.69
2023-05-17T06:05:47.155Z,100661.44
2023-05-17T06:08:52.736Z,100662.78
2023-05-17T06:11:58.871Z,100666.31
2023-05-17T06:15:04.749Z,100664.19
2023-05-17T06:18:10.132Z,100665.81
2023-05-17T06:21:16.495Z,100666.09
2023-05-17T06:24:22.047Z,100671.75
2023-05-17T06:27:27.884Z,100679.28
2023-05-17T06:30:33.271Z,100677.47
2023-05-17T06:33:38.644Z,100685.44
2023-05-17T06:36:43.867Z,100694.56
2023-05-17T06:40:00.071Z,100703.25
2023-05-17T06:43:10.703Z,100700.09
2023-05-17T06:46:15.999Z,100696.03
2023-05-17T06:49:21.884Z,100703.28
2023-05-17T06:52:27.528Z,100695.25
2023-05-17T06:55:33.013Z,100703.84
2023-05-17T06:58:38.393Z,100700.38
2023-05-17T07:01:44.377Z,100695.59
2023-05-17T07:04:49.994Z,100706.88
2023-05-17T07:07:55.836Z,100710.34
2023-05-17T07:11:01.626Z,100708.19
2023-05-17T07:14:07.155Z,100716.25
2023-05-17T07:17:12.696Z,100719.47
2023-05-17T07:20:18.374Z,100734.44
2023-05-17T07:23:23.839Z,100733.69
2023-05-17T07:26:29.615Z,100722.69
2023-05-17T07:29:35.418Z,100726.44
2023-05-17T07:32:41.393Z,100722.75
2023-05-17T07:35:47.289Z,100716.56
2023-05-17T07:38:52.695Z,100723.53
2023-05-17T07:41:58.101Z,100736.75
2023-05-17T07:45:03.928Z,100741.63
2023-05-17T07:48:09.271Z,100730.06
2023-05-17T07:51:17.594Z,100736.75
2023-05-17T07:54:30.044Z,100735.19
2023-05-17T07:57:36.030Z,100734.94
2023-05-17T08:00:46.490Z,100753.78
2023-05-17T08:03:52.126Z,100764.81
2023-05-17T08:06:58.076Z,100759.19
2023-05-17T08:10:03.391Z,100758.09
2023-05-17T08:13:09.482Z,100760.50
2023-05-17T08:16:15.270Z,100756.75
2023-05-17T08:19:21.025Z,100762.69
2023-05-17T08:22:27.856Z,100763.75
2023-05-17T08:25:33.566Z,100771.81
2023-05-17T08:28:39.721Z,100760.78
2023-05-17T08:31:45.772Z,100781.50
2023-05-17T08:34:51.264Z,100779.34
2023-05-17T08:37:58.013Z,100790.66
2023-05-17T08:41:04.464Z,100790.41
2023-05-17T08:44:09.989Z,100791.75
2023-05-17T08:47:26.400Z,100785.78
2023-05-17T08:50:35.677Z,100800.88
2023-05-17T08:53:42.829Z,100808.66
2023-05-17T08:56:52.538Z,100801.94
2023-05-17T09:00:07.356Z,100803.03
2023-05-17T09:03:17.998Z,100807.31
2023-05-17T09:06:24.847Z,100804.63
2023-05-17T09:09:30.353Z,100819.19
2023-05-17T09:12:36.125Z,100815.94
2023-05-17T09:15:47.346Z,100802.47
2023-05-17T09:18:57.054Z,100814.34
2023-05-17T09:22:04.911Z,100800.59
2023-05-17T09:25:10.915Z,100805.75
2023-05-17T09:28:22.455Z,100786.06
2023-05-17T09:31:27.887Z,100791.72
2023-05-17T09:34:34.053Z,100795.50
2023-05-17T09:37:39.688Z,100796.56
2023-05-17T09:40:48.315Z,100810.53
2023-05-17T09:43:53.661Z,100804.34
2023-05-17T09:47:00.035Z,100807.59
2023-05-17T09:50:08.175Z,100813.16
2023-05-17T09:53:30.742Z,100816.06
2023-05-17T09:56:36.213Z,100823.28
2023-05-17T09:59:41.877Z,100818.69
2023-05-17T10:02:50.360Z,100818.41
2023-05-17T10:05:55.767Z,100831.03
2023-05-17T10:09:02.725Z,100822.22
2023-05-17T10:12:10.615Z,100828.59
2023-05-17T10:15:17.949Z,100832.16
2023-05-17T10:18:24.985Z,100831.84
2023-05-17T10:21:31.573Z,100833.94
2023-05-17T10:24:38.323Z,100835.25
2023-05-17T10:27:43.992Z,100837.00
2023-05-17T10:30:51.688Z,100839.91
2023-05-17T10:33:59.115Z,100834.78
2023-05-17T10:37:05.536Z,100845.25
2023-05-17T10:40:14.897Z,100851.00
2023-05-17T10:43:21.572Z,100842.59
2023-05-17T10:46:29.866Z,100849.88
2023-05-17T10:49:39.890Z,100856.34
2023-05-17T10:52:48.503Z,100853.91
2023-05-17T10:55:53.713Z,100854.44
2023-05-17T10:59:20.113Z,100853.09
2023-05-17T11:02:27.462Z,100858.75
2023-05-17T11:05:33.293Z,100860.63
2023-05-17T11:08:47.652Z,100865.00
2023-05-17T11:12:10.780Z,100864.69
2023-05-17T11:15:17.862Z,100870.09
2023-05-17T11:18:31.257Z,100866.34
2023-05-17T11:21:48.893Z,100866.34
2023-05-17T11:24:58.165Z,100877.09
2023-05-17T11:28:21.034Z,100879.56
2023-05-17T11:31:33.873Z,100888.75
2023-05-17T11:34:39.978Z,100887.88
2023-05-17T11:37:45.854Z,100887.28
2023-05-17T11:40:55.482Z,100885.16
2023-05-17T11:44:01.094Z,100894.53
2023-05-17T11:47:11.700Z,100895.91
2023-05-17T11:50:17.882Z,100888.34
2023-05-17T11:53:25.601Z,100888.34
2023-05-17T11:59:47.609Z,100881.84
2023-05-17T12:02:53.274Z,100885.59
2023-05-17T12:06:18.313Z,100892.09
2023-05-17T12:09:24.533Z,100897.97
2023-05-17T12:12:30.056Z,100896.00
2023-05-17T12:15:36.194Z,100898.91
2023-05-17T12:18:48.468Z,100912.88
2023-05-17T12:21:54.011Z,100903.63
2023-05-17T12:24:59.613Z,100910.66
2023-05-17T12:28:22.847Z,100908.22
2023-05-17T12:31:34.104Z,100913.63
2023-05-17T12:34:39.756Z,100909.88
2023-05-17T12:37:45.304Z,100916.09
2023-05-17T12:40:50.928Z,100917.22
2023-05-17T12:44:06.142Z,100917.41
2023-05-17T12:47:19.746Z,100922.50
2023-05-17T12:50:32.012Z,100920.88
2023-05-17T12:53:39.305Z,100920.88
2023-05-17T12:56:45.288Z,100920.72
2023-05-17T12:59:53.237Z,100919.63
2023-05-17T13:02:58.611Z,100923.94
2023-05-17T13:06:08.017Z,100921.75
2023-05-17T13:09:13.630Z,100918.75
2023-05-17T13:12:24.577Z,100919.25
2023-05-17T13:15:31.324Z,100921.44
2023-05-17T13:18:52.832Z,100925.38
2023-05-17T13:21:58.153Z,100935.06
2023-05-17T13:25:03.996Z,100930.94
2023-05-17T13:28:11.081Z,100936.81
2023-05-17T13:31:16.585Z,100944.69
2023-05-17T13:34:22.139Z,100947.44
2023-05-17T13:37:27.706Z,100942.28
2023-05-17T13:40:32.685Z,100946.25
2023-05-17T13:43:38.008Z,100950.78
2023-05-17T13:46:43.585Z,100947.63
2023-05-17T13:49:48.764Z,100951.09
2023-05-17T13:52:54.148Z,100950.78
2023-05-17T13:55:59.629Z,100945.88
2023-05-17T13:59:05.110Z,100948.09
2023-05-17T14:02:12.113Z,100950.31
2023-05-17T14:05:18.316Z,100956.25
2023-05-17T14:08:23.725Z,100952.75
2023-05-17T14:11:29.203Z,100958.63
2023-05-17T14:14:34.496Z,100955.53
2023-05-17T14:17:40.343Z,100950.38
2023-05-17T14:20:45.998Z,100948.13
2023-05-17T14:23:51.797Z,100954.66
2023-05-17T14:26:58.027Z,100949.81
2023-05-17T14:30:05.323Z,100957.03
2023-05-17T14:33:10.820Z,100957.84
2023-05-17T14:36:16.759Z,100956.75
2023-05-17T14:39:22.459Z,100955.09
2023-05-17T14:42:28.604Z,100958.16
2023-05-17T14:45:33.702Z,100960.28
2023-05-17T14:48:39.061Z,100965.69
2023-05-17T14:51:45.216Z,100974.00
2023-05-17T14:54:50.766Z,100977.16
2023-05-17T14:57:58.060Z,100982.00
2023-05-17T15:01:06.255Z,100981.22
2023-05-17T15:04:13.523Z,100983.78
2023-05-17T15:07:18.933Z,100976.94
2023-05-17T15:10:24.746Z,100978.75
2023-05-17T15:13:30.024Z,100984.69
2023-05-17T15:16:35.465Z,100979.66
2023-05-17T15:19:41.641Z,100981.59
2023-05-17T15:22:48.479Z,100990.97
2023-05-17T15:25:54.277Z,100994.59
2023-05-17T15:29:00.016Z,100993.19
2023-05-17T15:32:05.445Z,100995.09
2023-05-17T15:35:11.118Z,101002.69
2023-05-17T15:38:17.307Z,101001.53
2023-05-17T15:41:29.725Z,101003.97
2023-05-17T15:44:35.852Z,100997.09
2023-05-17T15:47:43.555Z,101000.28
2023-05-17T15:50:50.199Z,101003.09
2023-05-17T15:53:56.398Z,101009.59
2023-05-17T15:57:02.746Z,101005.84
2023-05-17T16:00:09.744Z,101006.94
2023-05-17T16:03:15.510Z,101009.97
2023-05-17T16:06:22.324Z,101010.81
2023-05-17T16:09:27.812Z,101010.84
2023-05-17T16:12:33.047Z,101000.66
2023-05-17T16:15:38.915Z,101007.06
2023-05-17T16:18:44.204Z,101004.94
2023-05-17T16:21:51.217Z,101006.59
2023-05-17T16:24:57.334Z,101005.50
2023-05-17T16:28:03.430Z,101016.88
2023-05-17T16:31:09.326Z,101015.50
2023-05-17T16:34:14.937Z,101018.50
2023-05-17T16:37:20.811Z,101017.47
2023-05-17T16:40:29.309Z,101022.59
2023-05-17T16:43:35.858Z,101023.13
2023-05-17T16:46:41.633Z,101027.50
2023-05-17T16:49:46.588Z,101027.44
2023-05-17T16:52:52.220Z,101036.16
2023-05-17T16:55:57.485Z,101022.88
2023-05-17T16:59:03.126Z,101026.13
2023-05-17T17:02:08.733Z,101027.22
2023-05-17T17:05:14.571Z,101035.09
2023-05-17T17:08:19.886Z,101038.38
2023-05-17T17:11:25.357Z,101033.22
2023-05-17T17:14:32.419Z,101036.22
2023-05-17T17:17:38.250Z,101033.53
2023-05-17T17:20:44.314Z,101047.88
2023-05-17T17:23:51.477Z,101034.19
2023-05-17T17:26:57.017Z,101038.22
2023-05-17T17:30:04.324Z,101036.88
2023-05-17T17:33:10.381Z,101041.72
2023-05-17T17:36:16.036Z,101047.97
2023-05-17T17:39:22.039Z,101048.56
2023-05-17T17:42:28.775Z,101048.03
2023-05-17T17:45:35.816Z,101049.94
2023-05-17T17:48:41.560Z,101050.19
2023-05-17T17:51:47.157Z,101047.25
2023-05-17T17:54:52.551Z,101054.53
2023-05-17T17:57:58.041Z,101053.75
2023-05-17T18:01:03.964Z,101057.25
2023-05-17T18:04:11.422Z,101070.72
2023-05-17T18:07:18.719Z,101071.78
2023-05-17T18:10:24.761Z,101066.66
2023-05-17T18:13:31.127Z,101069.91
2023-05-17T18:16:36.712Z,101062.63
2023-05-17T18:19:41.970Z,101072.59
2023-05-17T18:22:47.565Z,101072.31
2023-05-17T18:25:53.169Z,101073.41
2023-05-17T18:28:58.846Z,101076.94
2023-05-17T18:32:05.046Z,101077.22
2023-05-17T18:35:10.719Z,101093.09
2023-05-17T18:38:16.683Z,101091.75
2023-05-17T18:41:22.844Z,101102.25
2023-05-17T18:44:28.747Z,101105.22
2023-05-17T18:47:35.108Z,101108.72
2023-05-17T18:50:40.590Z,101117.59
2023-05-17T18:53:46.071Z,101121.09
2023-05-17T18:56:51.641Z,101121.09
2023-05-17T18:59:57.186Z,101128.09
2023-05-17T19:03:04.964Z,101132.16
2023-05-17T19:06:10.637Z,101135.88
2023-05-17T19:09:16.351Z,101138.03
2023-05-17T19:12:21.762Z,101142.06
2023-05-17T19:15:27.272Z,101152.28
2023-05-17T19:18:33.422Z,101155.75
2023-05-17T19:21:39.583Z,101163.81
2023-05-17T19:24:45.599Z,101169.50
2023-05-17T19:27:52.234Z,101174.34
2023-05-17T19:31:00.555Z,101180.28
2023-05-17T19:34:08.039Z,101181.34
2023-05-17T19:37:15.654Z,101183.75
2023-05-17T19:40:24.446Z,101192.91
2023-05-17T19:43:33.991Z,101197.22
2023-05-17T19:46:41.611Z,101203.69
2023-05-17T19:49:49.430Z,101193.13
2023-05-17T19:52:57.649Z,101197.19
2023-05-17T19:56:10.020Z,101195.84
2023-05-17T19:59:17.632Z,101200.13
2023-05-17T20:02:24.074Z,101207.13
2023-05-17T20:05:31.238Z,101209.22
2023-05-17T20:08:37.982Z,101213.81
2023-05-17T20:11:44.927Z,101214.00
2023-05-17T20:14:51.802Z,101221.84
2023-05-17T20:17:59.031Z,101225.13
2023-05-17T20:21:05.633Z,101221.91
2023-05-17T20:24:11.492Z,101233.72
2023-05-17T20:27:17.087Z,101230.75
2023-05-17T20:30:22.625Z,101229.63
2023-05-17T20:33:28.027Z,101245.47
2023-05-17T20:36:34.005Z,101241.16
2023-05-17T20:39:40.315Z,101249.22
2023-05-17T20:42:46.271Z,101250.81
2023-05-17T20:45:53.917Z,101248.34
2023-05-17T20:48:59.188Z,101259.13
2023-05-17T20:52:04.769Z,101259.13
2023-05-17T20:55:10.793Z,101262.69
2023-05-17T20:58:16.784Z,101255.34
2023-05-17T21:01:22.825Z,101254.56
2023-05-17T21:04:27.851Z,101258.59
2023-05-17T21:07:33.222Z,101260.16
2023-05-17T21:10:43.596Z,101259.34
2023-05-17T21:13:49.450Z,101267.41
2023-05-17T21:16:56.399Z,101274.72
2023-05-17T21:20:02.006Z,101264.41
2023-05-17T21:23:07.218Z,101272.75
2023-05-17T21:26:13.605Z,101277.59
2023-05-17T21:29:19.128Z,101276.75
2023-05-17T21:32:24.630Z,101279.72
2023-05-17T21:35:30.221Z,101282.22
2023-05-17T21:38:36.337Z,101283.25
2023-05-17T21:41:41.390Z,101287.00
2023-05-17T21:44:46.511Z,101295.91
2023-05-17T21:47:52.445Z,101290.47
2023-05-17T21:50:57.857Z,101293.09
2023-05-17T21:54:03.719Z,101303.03
2023-05-17T21:57:09.310Z,101304.06
2023-05-17T22:00:15.683Z,101303.59
2023-05-17T22:03:20.986Z,101304.66
2023-05-17T22:06:27.932Z,101308.97
2023-05-17T22:09:34.473Z,101310.59
2023-05-17T22:12:39.647Z,101316.75
2023-05-17T22:15:45.548Z,101320.28
2023-05-17T22:18:54.198Z,101319.63
2023-05-17T22:21:59.988Z,101325.56
2023-05-17T22:25:07.053Z,101324.28
2023-05-17T22:28:12.442Z,101328.03
2023-05-17T22:31:21.017Z,101333.72
2023-05-17T22:34:26.533Z,101332.88
2023-05-17T22:37:33.145Z,101331.44
2023-05-17T22:40:38.529Z,101333.09
2023-05-17T22:43:43.553Z,101335.44
2023-05-17T22:46:48.693Z,101340.53
2023-05-17T22:49:53.902Z,101330.50
2023-05-17T22:52:59.339Z,101336.78
2023-05-17T22:56:06.729Z,101346.34
2023-05-17T22:59:12.214Z,101347.09
2023-05-17T23:02:17.830Z,101345.78
2023-05-17T23:05:23.451Z,101349.88
2023-05-17T23:08:32.555Z,101349.56
2023-05-17T23:11:41.792Z,101352.75
2023-05-17T23:14:47.618Z,101351.91
2023-05-17T23:17:53.241Z,101347.81
2023-05-17T23:20:59.463Z,101349.69
2023-05-17T23:24:05.164Z,101348.63
2023-05-17T23:27:12.928Z,101349.00
2023-05-17T23:30:18.179Z,101342.00
2023-05-17T23:33:23.024Z,101344.00
2023-05-17T23:36:28.360Z,101341.59
2023-05-17T23:39:34.045Z,101332.50
2023-05-17T23:42:40.964Z,101334.44
2023-05-17T23:45:47.220Z,101330.66
2023-05-17T23:48:52.693Z,101340.34
2023-05-17T23:51:58.268Z,101340.88
2023-05-17T23:55:03.552Z,101333.88
2023-05-17T23:58:08.986Z,101337.19
